sensor_id;sensor_type;location;lat;lon;timestamp;temperature;humidity
13440;DHT22;6792;57.698;11.946;2023-04-01T00:01:44;8.50;47.40
13440;DHT22;6792;57.698;11.946;2023-04-01T00:04:13;8.40;47.40
13440;DHT22;6792;57.698;11.946;2023-04-01T00:06:43;8.40;47.30
13440;DHT22;6792;57.698;11.946;2023-04-01T00:09:12;8.30;47.20
13440;DHT22;6792;57.698;11.946;2023-04-01T00:11:42;8.30;47.50
13440;DHT22;6792;57.698;11.946;2023-04-01T00:14:12;8.20;47.20
13440;DHT22;6792;57.698;11.946;2023-04-01T00:16:41;8.20;47.30
13440;DHT22;6792;57.698;11.946;2023-04-01T00:19:10;8.20;47.20
13440;DHT22;6792;57.698;11.946;2023-04-01T00:21:40;8.20;47.20
13440;DHT22;6792;57.698;11.946;2023-04-01T00:24:09;8.10;47.00
13440;DHT22;6792;57.698;11.946;2023-04-01T00:26:38;8.10;47.10
13440;DHT22;6792;57.698;11.946;2023-04-01T00:29:09;8.10;46.90
13440;DHT22;6792;57.698;11.946;2023-04-01T00:31:39;8.00;46.90
13440;DHT22;6792;57.698;11.946;2023-04-01T00:34:08;8.00;47.00
13440;DHT22;6792;57.698;11.946;2023-04-01T00:36:37;7.90;46.90
13440;DHT22;6792;57.698;11.946;2023-04-01T00:39:07;7.90;46.90
13440;DHT22;6792;57.698;11.946;2023-04-01T00:41:36;7.90;46.90
13440;DHT22;6792;57.698;11.946;2023-04-01T00:44:20;7.90;46.90
13440;DHT22;6792;57.698;11.946;2023-04-01T00:46:50;7.90;46.40
13440;DHT22;6792;57.698;11.946;2023-04-01T00:49:22;7.80;47.00
13440;DHT22;6792;57.698;11.946;2023-04-01T00:51:54;7.80;46.90
13440;DHT22;6792;57.698;11.946;2023-04-01T00:54:25;7.80;46.80
13440;DHT22;6792;57.698;11.946;2023-04-01T00:57:00;7.80;46.80
13440;DHT22;6792;57.698;11.946;2023-04-01T00:59:33;7.80;46.20
13440;DHT22;6792;57.698;11.946;2023-04-01T01:02:05;7.80;46.80
13440;DHT22;6792;57.698;11.946;2023-04-01T01:04:36;7.80;46.70
13440;DHT22;6792;57.698;11.946;2023-04-01T01:07:13;7.80;46.20
13440;DHT22;6792;57.698;11.946;2023-04-01T01:09:48;7.80;46.10
13440;DHT22;6792;57.698;11.946;2023-04-01T01:12:20;7.80;46.00
13440;DHT22;6792;57.698;11.946;2023-04-01T01:14:54;7.80;46.00
13440;DHT22;6792;57.698;11.946;2023-04-01T01:17:31;7.80;46.00
13440;DHT22;6792;57.698;11.946;2023-04-01T01:20:19;7.80;46.00
13440;DHT22;6792;57.698;11.946;2023-04-01T01:26:21;7.60;45.90
13440;DHT22;6792;57.698;11.946;2023-04-01T01:28:57;7.60;46.00
13440;DHT22;6792;57.698;11.946;2023-04-01T01:31:28;7.50;46.10
13440;DHT22;6792;57.698;11.946;2023-04-01T01:34:04;7.60;46.60
13440;DHT22;6792;57.698;11.946;2023-04-01T01:36:35;7.50;46.50
13440;DHT22;6792;57.698;11.946;2023-04-01T01:39:08;7.50;46.50
13440;DHT22;6792;57.698;11.946;2023-04-01T01:41:40;7.40;46.50
13440;DHT22;6792;57.698;11.946;2023-04-01T01:44:12;7.40;46.50
13440;DHT22;6792;57.698;11.946;2023-04-01T01:46:43;7.40;45.90
13440;DHT22;6792;57.698;11.946;2023-04-01T01:49:15;7.40;46.50
13440;DHT22;6792;57.698;11.946;2023-04-01T01:51:45;7.40;46.40
13440;DHT22;6792;57.698;11.946;2023-04-01T01:54:17;7.30;46.30
13440;DHT22;6792;57.698;11.946;2023-04-01T01:56:49;7.30;46.30
13440;DHT22;6792;57.698;11.946;2023-04-01T01:59:21;7.20;45.60
13440;DHT22;6792;57.698;11.946;2023-04-01T02:01:52;7.10;46.20
13440;DHT22;6792;57.698;11.946;2023-04-01T02:04:23;7.10;46.20
13440;DHT22;6792;57.698;11.946;2023-04-01T02:06:55;7.00;46.10
13440;DHT22;6792;57.698;11.946;2023-04-01T02:09:25;7.00;46.30
13440;DHT22;6792;57.698;11.946;2023-04-01T02:11:58;6.90;46.20
13440;DHT22;6792;57.698;11.946;2023-04-01T02:14:31;6.90;45.60
13440;DHT22;6792;57.698;11.946;2023-04-01T02:17:04;6.90;46.20
13440;DHT22;6792;57.698;11.946;2023-04-01T02:19:36;6.80;46.10
13440;DHT22;6792;57.698;11.946;2023-04-01T02:22:08;6.80;46.10
13440;DHT22;6792;57.698;11.946;2023-04-01T02:24:39;6.70;46.10
13440;DHT22;6792;57.698;11.946;2023-04-01T02:27:10;6.70;46.20
13440;DHT22;6792;57.698;11.946;2023-04-01T02:29:40;5.40;44.90
13440;DHT22;6792;57.698;11.946;2023-04-01T02:32:11;6.60;45.50
13440;DHT22;6792;57.698;11.946;2023-04-01T02:34:43;6.60;46.00
13440;DHT22;6792;57.698;11.946;2023-04-01T02:37:12;6.50;45.40
13440;DHT22;6792;57.698;11.946;2023-04-01T02:39:42;6.50;45.50
13440;DHT22;6792;57.698;11.946;2023-04-01T02:42:12;6.50;46.60
13440;DHT22;6792;57.698;11.946;2023-04-01T02:44:42;6.10;45.30
13440;DHT22;6792;57.698;11.946;2023-04-01T02:47:11;6.50;45.50
13440;DHT22;6792;57.698;11.946;2023-04-01T02:49:40;6.50;46.00
13440;DHT22;6792;57.698;11.946;2023-04-01T02:52:12;6.40;45.90
13440;DHT22;6792;57.698;11.946;2023-04-01T02:54:41;6.40;45.80
13440;DHT22;6792;57.698;11.946;2023-04-01T02:57:10;6.40;45.90
13440;DHT22;6792;57.698;11.946;2023-04-01T02:59:39;6.40;45.90
13440;DHT22;6792;57.698;11.946;2023-04-01T03:02:09;6.30;45.90
13440;DHT22;6792;57.698;11.946;2023-04-01T03:04:38;6.30;45.90
13440;DHT22;6792;57.698;11.946;2023-04-01T03:07:08;6.20;45.90
13440;DHT22;6792;57.698;11.946;2023-04-01T03:09:38;6.20;45.40
13440;DHT22;6792;57.698;11.946;2023-04-01T03:12:08;6.20;45.40
13440;DHT22;6792;57.698;11.946;2023-04-01T03:14:37;6.10;45.30
13440;DHT22;6792;57.698;11.946;2023-04-01T03:17:06;6.10;45.90
13440;DHT22;6792;57.698;11.946;2023-04-01T03:19:35;6.20;46.00
13440;DHT22;6792;57.698;11.946;2023-04-01T03:22:05;6.20;45.50
13440;DHT22;6792;57.698;11.946;2023-04-01T03:24:34;6.20;45.90
13440;DHT22;6792;57.698;11.946;2023-04-01T03:27:03;6.20;45.90
13440;DHT22;6792;57.698;11.946;2023-04-01T03:29:32;6.20;45.90
13440;DHT22;6792;57.698;11.946;2023-04-01T03:32:02;6.20;45.80
13440;DHT22;6792;57.698;11.946;2023-04-01T03:34:31;6.10;45.90
13440;DHT22;6792;57.698;11.946;2023-04-01T03:37:00;6.10;45.80
13440;DHT22;6792;57.698;11.946;2023-04-01T03:39:29;6.10;45.80
13440;DHT22;6792;57.698;11.946;2023-04-01T03:41:59;6.10;45.30
13440;DHT22;6792;57.698;11.946;2023-04-01T03:44:32;6.10;45.80
13440;DHT22;6792;57.698;11.946;2023-04-01T03:47:02;6.10;45.20
13440;DHT22;6792;57.698;11.946;2023-04-01T03:49:31;6.10;45.70
13440;DHT22;6792;57.698;11.946;2023-04-01T03:52:00;6.10;45.60
13440;DHT22;6792;57.698;11.946;2023-04-01T03:54:31;6.00;45.50
13440;DHT22;6792;57.698;11.946;2023-04-01T03:57:00;6.00;45.60
13440;DHT22;6792;57.698;11.946;2023-04-01T03:59:29;5.90;45.60
13440;DHT22;6792;57.698;11.946;2023-04-01T04:01:58;5.90;45.70
13440;DHT22;6792;57.698;11.946;2023-04-01T04:04:28;5.90;45.70
13440;DHT22;6792;57.698;11.946;2023-04-01T04:06:57;6.00;45.70
13440;DHT22;6792;57.698;11.946;2023-04-01T04:09:27;6.00;45.60
13440;DHT22;6792;57.698;11.946;2023-04-01T04:11:56;6.00;45.60
13440;DHT22;6792;57.698;11.946;2023-04-01T04:14:26;6.00;45.50
13440;DHT22;6792;57.698;11.946;2023-04-01T04:16:56;6.00;45.50
13440;DHT22;6792;57.698;11.946;2023-04-01T04:19:25;6.00;44.90
13440;DHT22;6792;57.698;11.946;2023-04-01T04:21:54;6.00;45.40
13440;DHT22;6792;57.698;11.946;2023-04-01T04:24:23;6.00;45.30
13440;DHT22;6792;57.698;11.946;2023-04-01T04:26:52;5.90;45.30
13440;DHT22;6792;57.698;11.946;2023-04-01T04:29:22;5.90;45.30
13440;DHT22;6792;57.698;11.946;2023-04-01T04:31:51;5.90;44.80
13440;DHT22;6792;57.698;11.946;2023-04-01T04:34:20;5.90;45.40
13440;DHT22;6792;57.698;11.946;2023-04-01T04:36:50;5.80;44.70
13440;DHT22;6792;57.698;11.946;2023-04-01T04:39:19;5.90;45.40
13440;DHT22;6792;57.698;11.946;2023-04-01T04:41:51;5.80;45.30
13440;DHT22;6792;57.698;11.946;2023-04-01T04:44:20;5.80;45.30
13440;DHT22;6792;57.698;11.946;2023-04-01T04:46:49;5.80;45.40
13440;DHT22;6792;57.698;11.946;2023-04-01T04:49:18;5.80;44.90
13440;DHT22;6792;57.698;11.946;2023-04-01T04:51:48;5.80;45.40
13440;DHT22;6792;57.698;11.946;2023-04-01T04:54:17;5.80;45.40
13440;DHT22;6792;57.698;11.946;2023-04-01T04:56:46;5.70;44.80
13440;DHT22;6792;57.698;11.946;2023-04-01T04:59:16;5.70;45.40
13440;DHT22;6792;57.698;11.946;2023-04-01T05:01:45;5.60;44.80
13440;DHT22;6792;57.698;11.946;2023-04-01T05:04:14;5.60;45.40
13440;DHT22;6792;57.698;11.946;2023-04-01T05:06:44;5.60;45.50
13440;DHT22;6792;57.698;11.946;2023-04-01T05:09:14;5.60;45.50
13440;DHT22;6792;57.698;11.946;2023-04-01T05:11:43;5.60;45.60
13440;DHT22;6792;57.698;11.946;2023-04-01T05:14:16;5.60;45.50
13440;DHT22;6792;57.698;11.946;2023-04-01T05:16:45;5.70;45.50
13440;DHT22;6792;57.698;11.946;2023-04-01T05:19:18;5.60;45.40
13440;DHT22;6792;57.698;11.946;2023-04-01T05:21:47;5.70;45.50
13440;DHT22;6792;57.698;11.946;2023-04-01T05:24:16;5.60;45.50
13440;DHT22;6792;57.698;11.946;2023-04-01T05:26:45;5.70;45.60
13440;DHT22;6792;57.698;11.946;2023-04-01T05:29:15;5.70;45.50
13440;DHT22;6792;57.698;11.946;2023-04-01T05:31:44;5.70;45.50
13440;DHT22;6792;57.698;11.946;2023-04-01T05:34:14;5.80;45.60
13440;DHT22;6792;57.698;11.946;2023-04-01T05:36:44;5.80;45.40
13440;DHT22;6792;57.698;11.946;2023-04-01T05:39:13;5.80;45.40
13440;DHT22;6792;57.698;11.946;2023-04-01T05:41:42;5.90;44.90
13440;DHT22;6792;57.698;11.946;2023-04-01T05:44:12;5.90;45.40
13440;DHT22;6792;57.698;11.946;2023-04-01T05:46:42;5.90;45.30
13440;DHT22;6792;57.698;11.946;2023-04-01T05:49:11;5.90;44.70
13440;DHT22;6792;57.698;11.946;2023-04-01T05:51:41;6.00;45.30
13440;DHT22;6792;57.698;11.946;2023-04-01T05:54:10;6.00;45.30
13440;DHT22;6792;57.698;11.946;2023-04-01T05:56:39;6.10;45.20
13440;DHT22;6792;57.698;11.946;2023-04-01T05:59:11;6.10;45.20
13440;DHT22;6792;57.698;11.946;2023-04-01T06:01:40;6.10;45.10
13440;DHT22;6792;57.698;11.946;2023-04-01T06:04:14;6.10;45.10
13440;DHT22;6792;57.698;11.946;2023-04-01T06:06:44;6.20;45.10
13440;DHT22;6792;57.698;11.946;2023-04-01T06:09:17;6.20;45.10
13440;DHT22;6792;57.698;11.946;2023-04-01T06:14:53;6.30;44.60
13440;DHT22;6792;57.698;11.946;2023-04-01T06:17:29;6.30;45.10
13440;DHT22;6792;57.698;11.946;2023-04-01T06:20:00;6.30;44.50
13440;DHT22;6792;57.698;11.946;2023-04-01T06:22:47;6.30;45.10
13440;DHT22;6792;57.698;11.946;2023-04-01T06:28:55;6.50;44.50
13440;DHT22;6792;57.698;11.946;2023-04-01T06:31:38;6.50;44.50
13440;DHT22;6792;57.698;11.946;2023-04-01T06:34:27;6.50;45.10
13440;DHT22;6792;57.698;11.946;2023-04-01T06:37:09;6.60;45.10
13440;DHT22;6792;57.698;11.946;2023-04-01T06:39:53;6.60;44.50
13440;DHT22;6792;57.698;11.946;2023-04-01T06:42:40;6.70;44.50
13440;DHT22;6792;57.698;11.946;2023-04-01T06:45:18;6.80;44.40
13440;DHT22;6792;57.698;11.946;2023-04-01T06:47:58;6.90;45.00
13440;DHT22;6792;57.698;11.946;2023-04-01T06:50:30;6.90;44.40
13440;DHT22;6792;57.698;11.946;2023-04-01T06:53:04;7.00;44.90
13440;DHT22;6792;57.698;11.946;2023-04-01T06:55:36;7.10;44.90
13440;DHT22;6792;57.698;11.946;2023-04-01T06:58:13;7.10;44.10
13440;DHT22;6792;57.698;11.946;2023-04-01T07:00:44;7.20;44.70
13440;DHT22;6792;57.698;11.946;2023-04-01T07:03:18;7.30;44.60
13440;DHT22;6792;57.698;11.946;2023-04-01T07:05:48;7.30;44.50
13440;DHT22;6792;57.698;11.946;2023-04-01T07:08:21;7.40;44.50
13440;DHT22;6792;57.698;11.946;2023-04-01T07:10:54;7.50;44.40
13440;DHT22;6792;57.698;11.946;2023-04-01T07:13:27;7.50;44.30
13440;DHT22;6792;57.698;11.946;2023-04-01T07:16:03;7.60;44.20
13440;DHT22;6792;57.698;11.946;2023-04-01T07:18:37;7.70;44.10
13440;DHT22;6792;57.698;11.946;2023-04-01T07:21:09;7.80;44.00
13440;DHT22;6792;57.698;11.946;2023-04-01T07:23:42;7.80;43.90
13440;DHT22;6792;57.698;11.946;2023-04-01T07:26:16;7.80;43.70
13440;DHT22;6792;57.698;11.946;2023-04-01T07:28:46;7.90;43.70
13440;DHT22;6792;57.698;11.946;2023-04-01T07:34:18;8.00;43.60
13440;DHT22;6792;57.698;11.946;2023-04-01T07:36:51;8.00;44.00
13440;DHT22;6792;57.698;11.946;2023-04-01T07:39:27;8.10;43.30
13440;DHT22;6792;57.698;11.946;2023-04-01T07:42:00;8.10;43.30
13440;DHT22;6792;57.698;11.946;2023-04-01T07:44:34;8.10;43.10
13440;DHT22;6792;57.698;11.946;2023-04-01T07:47:14;8.10;43.00
13440;DHT22;6792;57.698;11.946;2023-04-01T07:49:50;8.20;42.90
13440;DHT22;6792;57.698;11.946;2023-04-01T07:52:23;8.30;42.90
13440;DHT22;6792;57.698;11.946;2023-04-01T07:54:56;8.30;42.80
13440;DHT22;6792;57.698;11.946;2023-04-01T07:57:29;8.40;42.00
13440;DHT22;6792;57.698;11.946;2023-04-01T08:00:02;8.40;42.50
13440;DHT22;6792;57.698;11.946;2023-04-01T08:02:41;8.50;42.50
13440;DHT22;6792;57.698;11.946;2023-04-01T08:05:16;8.60;42.40
13440;DHT22;6792;57.698;11.946;2023-04-01T08:07:49;8.60;42.20
13440;DHT22;6792;57.698;11.946;2023-04-01T08:10:25;8.60;42.00
13440;DHT22;6792;57.698;11.946;2023-04-01T08:13:00;8.60;41.30
13440;DHT22;6792;57.698;11.946;2023-04-01T08:15:32;8.60;41.70
13440;DHT22;6792;57.698;11.946;2023-04-01T08:18:17;8.70;41.60
13440;DHT22;6792;57.698;11.946;2023-04-01T08:20:48;8.70;41.40
13440;DHT22;6792;57.698;11.946;2023-04-01T08:23:22;8.70;41.30
13440;DHT22;6792;57.698;11.946;2023-04-01T08:25:55;8.80;41.20
13440;DHT22;6792;57.698;11.946;2023-04-01T08:31:10;8.90;40.50
13440;DHT22;6792;57.698;11.946;2023-04-01T08:33:41;8.90;40.40
13440;DHT22;6792;57.698;11.946;2023-04-01T08:36:14;8.90;40.80
13440;DHT22;6792;57.698;11.946;2023-04-01T08:38:49;8.90;40.70
13440;DHT22;6792;57.698;11.946;2023-04-01T08:41:36;8.90;40.60
13440;DHT22;6792;57.698;11.946;2023-04-01T08:44:22;9.00;40.60
13440;DHT22;6792;57.698;11.946;2023-04-01T08:47:12;9.00;40.50
13440;DHT22;6792;57.698;11.946;2023-04-01T08:50:01;9.10;40.50
13440;DHT22;6792;57.698;11.946;2023-04-01T08:52:37;9.10;40.40
13440;DHT22;6792;57.698;11.946;2023-04-01T08:55:44;9.20;40.30
13440;DHT22;6792;57.698;11.946;2023-04-01T08:58:35;9.30;40.20
13440;DHT22;6792;57.698;11.946;2023-04-01T09:01:19;9.30;39.40
13440;DHT22;6792;57.698;11.946;2023-04-01T09:06:53;9.30;40.20
13440;DHT22;6792;57.698;11.946;2023-04-01T09:12:43;9.30;39.90
13440;DHT22;6792;57.698;11.946;2023-04-01T09:15:37;9.40;39.90
13440;DHT22;6792;57.698;11.946;2023-04-01T09:18:20;9.40;39.20
13440;DHT22;6792;57.698;11.946;2023-04-01T09:21:11;9.40;39.80
13440;DHT22;6792;57.698;11.946;2023-04-01T09:24:03;9.50;39.80
13440;DHT22;6792;57.698;11.946;2023-04-01T09:26:53;9.60;39.80
13440;DHT22;6792;57.698;11.946;2023-04-01T09:29:32;9.70;39.70
13440;DHT22;6792;57.698;11.946;2023-04-01T09:32:17;9.70;39.50
13440;DHT22;6792;57.698;11.946;2023-04-01T09:34:55;9.80;38.80
13440;DHT22;6792;57.698;11.946;2023-04-01T09:40:18;10.00;38.50
13440;DHT22;6792;57.698;11.946;2023-04-01T09:43:00;10.00;38.50
13440;DHT22;6792;57.698;11.946;2023-04-01T09:45:41;10.10;38.90
13440;DHT22;6792;57.698;11.946;2023-04-01T09:48:17;10.20;38.80
13440;DHT22;6792;57.698;11.946;2023-04-01T09:50:52;10.20;38.60
13440;DHT22;6792;57.698;11.946;2023-04-01T09:53:33;10.20;38.50
13440;DHT22;6792;57.698;11.946;2023-04-01T09:56:31;10.30;37.90
13440;DHT22;6792;57.698;11.946;2023-04-01T10:18:14;10.40;37.80
13440;DHT22;6792;57.698;11.946;2023-04-01T10:21:08;10.40;38.40
13440;DHT22;6792;57.698;11.946;2023-04-01T10:27:11;10.60;38.30
13440;DHT22;6792;57.698;11.946;2023-04-01T10:39:56;10.90;37.30
13440;DHT22;6792;57.698;11.946;2023-04-01T10:52:02;11.10;37.20
13440;DHT22;6792;57.698;11.946;2023-04-01T10:54:55;11.10;38.00
13440;DHT22;6792;57.698;11.946;2023-04-01T10:57:43;11.10;37.90
13440;DHT22;6792;57.698;11.946;2023-04-01T11:04:03;11.30;37.00
13440;DHT22;6792;57.698;11.946;2023-04-01T11:10:05;11.40;37.20
13440;DHT22;6792;57.698;11.946;2023-04-01T11:13:06;11.50;37.20
13440;DHT22;6792;57.698;11.946;2023-04-01T11:18:59;11.60;37.90
13440;DHT22;6792;57.698;11.946;2023-04-01T11:21:57;11.70;37.90
13440;DHT22;6792;57.698;11.946;2023-04-01T11:24:36;11.80;37.80
13440;DHT22;6792;57.698;11.946;2023-04-01T11:27:16;11.90;38.30
13440;DHT22;6792;57.698;11.946;2023-04-01T11:29:57;12.00;37.60
13440;DHT22;6792;57.698;11.946;2023-04-01T11:32:38;12.10;37.40
13440;DHT22;6792;57.698;11.946;2023-04-01T11:35:22;12.30;36.70
13440;DHT22;6792;57.698;11.946;2023-04-01T11:37:53;12.40;36.70
13440;DHT22;6792;57.698;11.946;2023-04-01T11:40:26;12.50;37.20
13440;DHT22;6792;57.698;11.946;2023-04-01T11:43:05;12.60;37.10
13440;DHT22;6792;57.698;11.946;2023-04-01T11:45:36;12.70;37.00
13440;DHT22;6792;57.698;11.946;2023-04-01T11:48:19;12.80;37.00
13440;DHT22;6792;57.698;11.946;2023-04-01T11:51:00;12.90;36.80
13440;DHT22;6792;57.698;11.946;2023-04-01T11:53:46;13.00;36.80
13440;DHT22;6792;57.698;11.946;2023-04-01T11:56:23;13.10;36.10
13440;DHT22;6792;57.698;11.946;2023-04-01T11:59:08;13.20;36.70
13440;DHT22;6792;57.698;11.946;2023-04-01T12:01:48;13.30;35.90
13440;DHT22;6792;57.698;11.946;2023-04-01T12:04:45;13.40;36.60
13440;DHT22;6792;57.698;11.946;2023-04-01T12:07:24;13.50;36.50
13440;DHT22;6792;57.698;11.946;2023-04-01T12:09:58;13.70;36.50
13440;DHT22;6792;57.698;11.946;2023-04-01T12:12:36;13.90;36.40
13440;DHT22;6792;57.698;11.946;2023-04-01T12:15:17;14.00;36.20
13440;DHT22;6792;57.698;11.946;2023-04-01T12:17:50;14.20;36.10
13440;DHT22;6792;57.698;11.946;2023-04-01T12:20:36;14.40;35.90
13440;DHT22;6792;57.698;11.946;2023-04-01T12:23:16;14.60;35.70
13440;DHT22;6792;57.698;11.946;2023-04-01T12:28:58;15.00;34.50
13440;DHT22;6792;57.698;11.946;2023-04-01T12:31:33;15.10;35.10
13440;DHT22;6792;57.698;11.946;2023-04-01T12:34:26;15.20;35.00
13440;DHT22;6792;57.698;11.946;2023-04-01T12:37:08;15.30;33.60
13440;DHT22;6792;57.698;11.946;2023-04-01T12:42:59;15.60;33.00
13440;DHT22;6792;57.698;11.946;2023-04-01T12:45:32;15.80;32.80
13440;DHT22;6792;57.698;11.946;2023-04-01T12:54:44;16.30;32.80
13440;DHT22;6792;57.698;11.946;2023-04-01T12:57:27;16.50;31.60
13440;DHT22;6792;57.698;11.946;2023-04-01T13:03:32;16.90;31.00
13440;DHT22;6792;57.698;11.946;2023-04-01T13:06:21;17.10;32.10
13440;DHT22;6792;57.698;11.946;2023-04-01T13:08:59;17.40;30.40
13440;DHT22;6792;57.698;11.946;2023-04-01T13:11:35;17.50;31.20
13440;DHT22;6792;57.698;11.946;2023-04-01T13:14:25;17.80;30.10
13440;DHT22;6792;57.698;11.946;2023-04-01T13:17:03;18.30;30.00
13440;DHT22;6792;57.698;11.946;2023-04-01T13:19:37;19.20;30.80
13440;DHT22;6792;57.698;11.946;2023-04-01T13:22:15;20.50;30.20
13440;DHT22;6792;57.698;11.946;2023-04-01T13:24:51;22.00;29.80
13440;DHT22;6792;57.698;11.946;2023-04-01T13:27:25;23.60;29.10
13440;DHT22;6792;57.698;11.946;2023-04-01T13:30:03;25.00;28.30
13440;DHT22;6792;57.698;11.946;2023-04-01T13:32:36;26.50;27.70
13440;DHT22;6792;57.698;11.946;2023-04-01T13:35:25;28.00;27.60
13440;DHT22;6792;57.698;11.946;2023-04-01T13:38:02;29.20;25.80
13440;DHT22;6792;57.698;11.946;2023-04-01T13:40:40;30.30;24.40
13440;DHT22;6792;57.698;11.946;2023-04-01T13:43:16;31.20;24.30
13440;DHT22;6792;57.698;11.946;2023-04-01T13:46:22;32.10;23.00
13440;DHT22;6792;57.698;11.946;2023-04-01T13:49:03;32.90;22.10
13440;DHT22;6792;57.698;11.946;2023-04-01T13:51:49;33.60;23.30
13440;DHT22;6792;57.698;11.946;2023-04-01T13:54:39;33.80;22.40
13440;DHT22;6792;57.698;11.946;2023-04-01T13:57:21;34.10;20.60
13440;DHT22;6792;57.698;11.946;2023-04-01T14:00:02;34.30;21.40
13440;DHT22;6792;57.698;11.946;2023-04-01T14:05:49;32.60;19.50
13440;DHT22;6792;57.698;11.946;2023-04-01T14:08:29;30.60;18.70
13440;DHT22;6792;57.698;11.946;2023-04-01T14:11:06;29.10;18.90
13440;DHT22;6792;57.698;11.946;2023-04-01T14:13:39;28.00;20.00
13440;DHT22;6792;57.698;11.946;2023-04-01T14:16:20;27.00;20.20
13440;DHT22;6792;57.698;11.946;2023-04-01T14:19:10;26.00;19.80
13440;DHT22;6792;57.698;11.946;2023-04-01T14:21:42;25.20;20.40
13440;DHT22;6792;57.698;11.946;2023-04-01T14:24:34;24.00;20.20
13440;DHT22;6792;57.698;11.946;2023-04-01T14:27:20;23.20;20.50
13440;DHT22;6792;57.698;11.946;2023-04-01T14:32:51;21.70;21.70
13440;DHT22;6792;57.698;11.946;2023-04-01T14:35:33;21.10;22.10
13440;DHT22;6792;57.698;11.946;2023-04-01T14:38:28;20.60;21.80
13440;DHT22;6792;57.698;11.946;2023-04-01T14:41:12;20.20;22.00
13440;DHT22;6792;57.698;11.946;2023-04-01T14:47:16;19.30;22.50
13440;DHT22;6792;57.698;11.946;2023-04-01T14:49:50;19.00;23.40
13440;DHT22;6792;57.698;11.946;2023-04-01T14:52:27;18.70;23.70
13440;DHT22;6792;57.698;11.946;2023-04-01T14:54:57;18.50;23.80
13440;DHT22;6792;57.698;11.946;2023-04-01T14:57:29;18.20;24.00
13440;DHT22;6792;57.698;11.946;2023-04-01T15:00:09;17.90;24.00
13440;DHT22;6792;57.698;11.946;2023-04-01T15:02:46;17.50;23.10
13440;DHT22;6792;57.698;11.946;2023-04-01T15:05:24;17.20;23.70
13440;DHT22;6792;57.698;11.946;2023-04-01T15:08:12;17.00;24.10
13440;DHT22;6792;57.698;11.946;2023-04-01T15:11:24;16.80;24.40
13440;DHT22;6792;57.698;11.946;2023-04-01T15:14:07;16.60;24.20
13440;DHT22;6792;57.698;11.946;2023-04-01T15:16:44;16.40;24.50
13440;DHT22;6792;57.698;11.946;2023-04-01T15:19:18;16.20;24.70
13440;DHT22;6792;57.698;11.946;2023-04-01T15:24:56;15.90;24.90
13440;DHT22;6792;57.698;11.946;2023-04-01T15:27:32;15.70;25.50
13440;DHT22;6792;57.698;11.946;2023-04-01T15:30:33;15.50;25.60
13440;DHT22;6792;57.698;11.946;2023-04-01T15:33:19;15.40;25.80
13440;DHT22;6792;57.698;11.946;2023-04-01T15:35:52;15.20;25.50
13440;DHT22;6792;57.698;11.946;2023-04-01T15:38:33;15.00;26.20
13440;DHT22;6792;57.698;11.946;2023-04-01T15:41:09;14.90;26.30
13440;DHT22;6792;57.698;11.946;2023-04-01T15:43:42;14.80;26.40
13440;DHT22;6792;57.698;11.946;2023-04-01T15:49:27;14.50;26.10
13440;DHT22;6792;57.698;11.946;2023-04-01T15:52:10;14.50;26.80
13440;DHT22;6792;57.698;11.946;2023-04-01T15:54:59;14.30;26.40
13440;DHT22;6792;57.698;11.946;2023-04-01T15:57:35;14.30;27.10
13440;DHT22;6792;57.698;11.946;2023-04-01T16:03:19;14.20;27.40
13440;DHT22;6792;57.698;11.946;2023-04-01T16:05:57;14.10;27.60
13440;DHT22;6792;57.698;11.946;2023-04-01T16:11:47;14.10;27.70
13440;DHT22;6792;57.698;11.946;2023-04-01T16:14:26;14.00;28.20
13440;DHT22;6792;57.698;11.946;2023-04-01T16:17:03;14.00;28.40
13440;DHT22;6792;57.698;11.946;2023-04-01T16:19:41;14.00;28.10
13440;DHT22;6792;57.698;11.946;2023-04-01T16:22:14;13.90;28.30
13440;DHT22;6792;57.698;11.946;2023-04-01T16:24:51;13.90;28.50
13440;DHT22;6792;57.698;11.946;2023-04-01T16:27:25;13.80;29.00
13440;DHT22;6792;57.698;11.946;2023-04-01T16:29:57;13.80;28.70
13440;DHT22;6792;57.698;11.946;2023-04-01T16:32:38;13.80;29.30
13440;DHT22;6792;57.698;11.946;2023-04-01T16:35:23;13.80;29.00
13440;DHT22;6792;57.698;11.946;2023-04-01T16:37:55;13.70;29.10
13440;DHT22;6792;57.698;11.946;2023-04-01T16:40:34;13.70;29.70
13440;DHT22;6792;57.698;11.946;2023-04-01T16:43:12;13.60;29.30
13440;DHT22;6792;57.698;11.946;2023-04-01T16:45:45;13.60;30.00
13440;DHT22;6792;57.698;11.946;2023-04-01T16:48:17;13.60;29.90
13440;DHT22;6792;57.698;11.946;2023-04-01T16:50:54;13.60;30.00
13440;DHT22;6792;57.698;11.946;2023-04-01T16:53:34;13.60;29.60
13440;DHT22;6792;57.698;11.946;2023-04-01T16:56:08;13.50;29.60
13440;DHT22;6792;57.698;11.946;2023-04-01T16:58:41;13.50;30.00
13440;DHT22;6792;57.698;11.946;2023-04-01T17:01:13;13.40;30.00
13440;DHT22;6792;57.698;11.946;2023-04-01T17:03:45;13.30;29.70
13440;DHT22;6792;57.698;11.946;2023-04-01T17:06:25;13.30;30.10
13440;DHT22;6792;57.698;11.946;2023-04-01T17:09:03;13.20;30.10
13440;DHT22;6792;57.698;11.946;2023-04-01T17:11:36;13.20;29.80
13440;DHT22;6792;57.698;11.946;2023-04-01T17:14:12;13.10;30.20
13440;DHT22;6792;57.698;11.946;2023-04-01T17:16:57;13.10;30.30
13440;DHT22;6792;57.698;11.946;2023-04-01T17:19:38;13.00;30.00
13440;DHT22;6792;57.698;11.946;2023-04-01T17:22:13;12.90;30.00
13440;DHT22;6792;57.698;11.946;2023-04-01T17:24:51;12.80;30.00
13440;DHT22;6792;57.698;11.946;2023-04-01T17:27:28;12.80;30.10
13440;DHT22;6792;57.698;11.946;2023-04-01T17:30:15;12.80;30.80
13440;DHT22;6792;57.698;11.946;2023-04-01T17:35:34;12.70;30.30
13440;DHT22;6792;57.698;11.946;2023-04-01T17:38:13;12.70;30.90
13440;DHT22;6792;57.698;11.946;2023-04-01T17:40:52;12.60;31.00
13440;DHT22;6792;57.698;11.946;2023-04-01T17:43:28;12.60;31.10
13440;DHT22;6792;57.698;11.946;2023-04-01T17:46:10;12.60;30.60
13440;DHT22;6792;57.698;11.946;2023-04-01T17:48:45;12.60;31.20
13440;DHT22;6792;57.698;11.946;2023-04-01T17:51:23;12.60;31.20
13440;DHT22;6792;57.698;11.946;2023-04-01T17:53:57;12.50;30.70
13440;DHT22;6792;57.698;11.946;2023-04-01T17:56:38;12.40;30.80
13440;DHT22;6792;57.698;11.946;2023-04-01T17:59:15;12.40;30.90
13440;DHT22;6792;57.698;11.946;2023-04-01T18:01:49;12.40;31.00
13440;DHT22;6792;57.698;11.946;2023-04-01T18:04:44;12.30;31.60
13440;DHT22;6792;57.698;11.946;2023-04-01T18:10:23;12.30;31.80
13440;DHT22;6792;57.698;11.946;2023-04-01T18:16:24;12.20;31.40
13440;DHT22;6792;57.698;11.946;2023-04-01T18:19:01;12.10;32.10
13440;DHT22;6792;57.698;11.946;2023-04-01T18:21:39;12.10;32.10
13440;DHT22;6792;57.698;11.946;2023-04-01T18:24:14;12.20;31.60
13440;DHT22;6792;57.698;11.946;2023-04-01T18:26:46;12.20;32.20
13440;DHT22;6792;57.698;11.946;2023-04-01T18:29:23;12.10;32.20
13440;DHT22;6792;57.698;11.946;2023-04-01T18:32:05;12.10;32.30
13440;DHT22;6792;57.698;11.946;2023-04-01T18:34:37;12.00;31.70
13440;DHT22;6792;57.698;11.946;2023-04-01T18:37:14;12.00;31.80
13440;DHT22;6792;57.698;11.946;2023-04-01T18:39:46;12.00;32.50